createdAt,value
2023-03-30T00:00:47.851Z,97.42
2023-03-30T00:01:47.862Z,97.73
2023-03-30T00:02:47.875Z,97.63
2023-03-30T00:03:48.110Z,97.73
2023-03-30T00:04:47.868Z,97.88
2023-03-30T00:05:47.806Z,97.53
2023-03-30T00:06:47.804Z,97.57
2023-03-30T00:07:47.777Z,98.25
2023-03-30T00:08:47.783Z,97.83
2023-03-30T00:09:47.779Z,97.83
2023-03-30T00:10:47.732Z,97.78
2023-03-30T00:11:47.716Z,97.83
2023-03-30T00:12:47.743Z,97.94
2023-03-30T00:13:47.729Z,98.08
2023-03-30T00:14:47.709Z,98.08
2023-03-30T00:15:47.754Z,98.08
2023-03-30T00:16:47.735Z,98.08
2023-03-30T00:17:47.744Z,98.29
2023-03-30T00:18:47.645Z,98.08
2023-03-30T00:19:47.648Z,97.88
2023-03-30T00:20:47.664Z,97.78
2023-03-30T00:21:47.674Z,98.08
2023-03-30T00:22:47.608Z,97.16
2023-03-30T00:23:47.627Z,97.73
2023-03-30T00:24:47.589Z,97.78
2023-03-30T00:25:47.565Z,97.78
2023-03-30T00:26:47.572Z,97.57
2023-03-30T00:27:47.543Z,97.67
2023-03-30T00:28:47.564Z,97.27
2023-03-30T00:29:47.530Z,97.27
2023-03-30T00:30:47.526Z,97.16
2023-03-30T00:31:47.552Z,97.37
2023-03-30T00:32:47.534Z,97.67
2023-03-30T00:33:47.988Z,97.47
2023-03-30T00:34:47.518Z,97.57
2023-03-30T00:35:47.596Z,97.27
2023-03-30T00:36:47.434Z,97.47
2023-03-30T00:37:47.447Z,97.37
2023-03-30T00:38:47.418Z,97.37
2023-03-30T00:39:47.425Z,97.78
2023-03-30T00:40:47.502Z,98.29
2023-03-30T00:41:47.433Z,98.70
2023-03-30T00:42:47.382Z,98.85
2023-03-30T00:43:47.356Z,98.60
2023-03-30T00:44:47.347Z,98.80
2023-03-30T00:45:47.366Z,98.65
2023-03-30T00:46:47.387Z,98.29
2023-03-30T00:47:47.347Z,98.29
2023-03-30T00:48:47.346Z,98.39
2023-03-30T00:49:47.287Z,98.39
2023-03-30T00:50:47.282Z,98.29
2023-03-30T00:51:47.269Z,98.39
2023-03-30T00:52:47.319Z,98.50
2023-03-30T00:53:47.271Z,98.50
2023-03-30T00:54:47.233Z,98.39
2023-03-30T00:55:47.221Z,98.03
2023-03-30T00:56:47.280Z,98.39
2023-03-30T00:57:47.206Z,98.29
2023-03-30T00:58:47.224Z,98.33
2023-03-30T00:59:47.234Z,98.65
2023-03-30T01:00:47.265Z,98.54
2023-03-30T01:01:47.260Z,98.85
2023-03-30T01:02:47.213Z,99.26
2023-03-30T01:03:47.326Z,99.37
2023-03-30T01:04:47.192Z,99.47
2023-03-30T01:05:47.121Z,99.05
2023-03-30T01:06:47.111Z,99.05
2023-03-30T01:07:47.109Z,98.96
2023-03-30T01:08:47.079Z,99.31
2023-03-30T01:09:47.076Z,98.90
2023-03-30T01:10:47.136Z,99.47
2023-03-30T01:11:47.044Z,99.67
2023-03-30T01:12:47.033Z,99.51
2023-03-30T01:13:47.024Z,99.31
2023-03-30T01:14:47.028Z,99.72
2023-03-30T01:15:47.097Z,99.41
2023-03-30T01:16:47.061Z,99.51
2023-03-30T01:17:46.996Z,99.93
2023-03-30T01:18:46.994Z,99.82
2023-03-30T01:19:46.955Z,99.41
2023-03-30T01:20:46.966Z,99.41
2023-03-30T01:21:46.965Z,99.51
2023-03-30T01:22:46.940Z,99.62
2023-03-30T01:23:46.911Z,99.82
2023-03-30T01:24:46.919Z,99.82
2023-03-30T01:25:46.893Z,99.62
2023-03-30T01:26:46.902Z,99.72
2023-03-30T01:27:46.863Z,99.82
2023-03-30T01:28:46.912Z,99.41
2023-03-30T01:29:46.849Z,99.51
2023-03-30T01:30:46.926Z,99.82
2023-03-30T01:31:46.874Z,99.72
2023-03-30T01:32:46.858Z,99.21
2023-03-30T01:33:46.797Z,99.88
2023-03-30T01:34:46.886Z,99.93
2023-03-30T01:35:46.831Z,99.72
2023-03-30T01:36:46.798Z,99.72
2023-03-30T01:37:46.775Z,99.82
2023-03-30T01:38:46.742Z,99.72
2023-03-30T01:39:46.730Z,99.72
2023-03-30T01:40:46.751Z,99.51
2023-03-30T01:41:46.722Z,99.72
2023-03-30T01:42:46.703Z,99.98
2023-03-30T01:43:46.723Z,99.88
2023-03-30T01:44:46.707Z,99.93
2023-03-30T01:45:46.662Z,99.99
2023-03-30T01:46:46.735Z,99.99
2023-03-30T01:47:46.712Z,99.99
2023-03-30T01:48:46.850Z,99.99
2023-03-30T01:49:46.643Z,99.99
2023-03-30T01:50:46.627Z,99.98
2023-03-30T01:51:46.596Z,99.77
2023-03-30T01:52:49.195Z,99.98
2023-03-30T01:53:46.620Z,99.26
2023-03-30T01:54:46.577Z,99.57
2023-03-30T01:55:46.573Z,99.26
2023-03-30T01:56:46.607Z,99.98
2023-03-30T01:57:46.532Z,99.77
2023-03-30T01:58:46.533Z,99.67
2023-03-30T01:59:46.572Z,99.88
2023-03-30T02:00:46.508Z,99.77
2023-03-30T02:01:46.523Z,99.67
2023-03-30T02:02:46.513Z,99.77
2023-03-30T02:03:46.600Z,99.26
2023-03-30T02:04:46.451Z,98.79
2023-03-30T02:05:46.520Z,99.31
2023-03-30T02:06:46.454Z,99.67
2023-03-30T02:07:46.418Z,99.21
2023-03-30T02:08:46.406Z,98.90
2023-03-30T02:09:46.395Z,99.62
2023-03-30T02:10:46.417Z,99.62
2023-03-30T02:11:46.448Z,99.62
2023-03-30T02:12:46.364Z,99.56
2023-03-30T02:13:46.350Z,99.62
2023-03-30T02:14:46.398Z,99.41
2023-03-30T02:15:46.334Z,99.41
2023-03-30T02:16:46.357Z,99.72
2023-03-30T02:17:46.396Z,99.62
2023-03-30T02:18:46.304Z,99.66
2023-03-30T02:19:46.282Z,99.35
2023-03-30T02:20:46.311Z,99.66
2023-03-30T02:21:46.289Z,99.77
2023-03-30T02:22:46.286Z,99.56
2023-03-30T02:23:46.317Z,99.99
2023-03-30T02:24:46.229Z,99.97
2023-03-30T02:25:46.239Z,99.99
2023-03-30T02:26:46.211Z,99.99
2023-03-30T02:27:46.227Z,99.99
2023-03-30T02:28:46.196Z,99.99
2023-03-30T02:29:46.241Z,99.99
2023-03-30T02:30:46.187Z,99.99
2023-03-30T02:31:46.158Z,99.99
2023-03-30T02:32:46.169Z,99.99
2023-03-30T02:33:46.134Z,99.99
2023-03-30T02:34:46.144Z,99.99
2023-03-30T02:35:46.223Z,99.99
2023-03-30T02:36:46.095Z,99.99
2023-03-30T02:37:46.085Z,99.99
2023-03-30T02:38:46.090Z,99.99
2023-03-30T02:39:46.095Z,99.99
2023-03-30T02:40:46.066Z,99.99
2023-03-30T02:41:46.093Z,99.99
2023-03-30T02:42:46.051Z,99.99
2023-03-30T02:43:46.020Z,99.99
2023-03-30T02:44:46.006Z,99.99
2023-03-30T02:45:46.090Z,99.99
2023-03-30T02:46:45.982Z,99.99
2023-03-30T02:47:46.075Z,99.99
2023-03-30T02:48:45.960Z,99.99
2023-03-30T02:49:45.972Z,99.99
2023-03-30T02:50:45.946Z,99.99
2023-03-30T02:51:45.942Z,99.99
2023-03-30T02:52:45.949Z,99.99
2023-03-30T02:53:45.990Z,99.99
2023-03-30T02:54:45.929Z,99.99
2023-03-30T02:55:45.900Z,99.99
2023-03-30T02:56:45.977Z,99.99
2023-03-30T02:57:45.894Z,99.99
2023-03-30T02:58:45.850Z,99.99
2023-03-30T02:59:45.921Z,99.99
2023-03-30T03:00:45.838Z,99.99
2023-03-30T03:01:45.830Z,99.99
2023-03-30T03:02:45.930Z,99.99
2023-03-30T03:03:45.884Z,99.99
2023-03-30T03:04:45.805Z,99.99
2023-03-30T03:05:45.848Z,99.99
2023-03-30T03:06:45.772Z,99.99
2023-03-30T03:07:45.784Z,99.99
2023-03-30T03:08:45.745Z,99.99
2023-03-30T03:09:45.725Z,99.99
2023-03-30T03:10:45.734Z,99.99
2023-03-30T03:11:45.801Z,99.99
2023-03-30T03:12:45.688Z,99.99
2023-03-30T03:13:45.696Z,99.99
2023-03-30T03:14:45.667Z,99.99
2023-03-30T03:15:45.704Z,99.99
2023-03-30T03:16:45.758Z,99.99
2023-03-30T03:17:45.710Z,99.99
2023-03-30T03:18:45.629Z,99.99
2023-03-30T03:19:45.647Z,99.99
2023-03-30T03:20:45.600Z,99.99
2023-03-30T03:21:45.598Z,99.99
2023-03-30T03:22:45.617Z,99.99
2023-03-30T03:23:45.599Z,99.99
2023-03-30T03:24:45.571Z,99.99
2023-03-30T03:25:45.564Z,99.99
2023-03-30T03:26:45.593Z,99.99
2023-03-30T03:27:45.550Z,99.99
2023-03-30T03:28:45.534Z,99.99
2023-03-30T03:29:45.529Z,99.99
2023-03-30T03:30:45.510Z,99.99
2023-03-30T03:31:45.525Z,99.99
2023-03-30T03:32:45.532Z,99.99
2023-03-30T03:33:45.457Z,99.99
2023-03-30T03:34:45.498Z,99.99
2023-03-30T03:35:45.498Z,99.99
2023-03-30T03:36:45.445Z,99.99
2023-03-30T03:37:45.447Z,99.99
2023-03-30T03:38:45.398Z,99.99
2023-03-30T03:39:45.387Z,99.99
2023-03-30T03:40:45.427Z,99.99
2023-03-30T03:41:45.384Z,99.99
2023-03-30T03:42:45.414Z,99.99
2023-03-30T03:43:45.389Z,99.99
2023-03-30T03:44:45.334Z,99.99
2023-03-30T03:45:45.333Z,99.99
2023-03-30T03:46:45.420Z,99.99
2023-03-30T03:47:45.361Z,99.99
2023-03-30T03:48:45.285Z,99.99
2023-03-30T03:49:45.279Z,99.99
2023-03-30T03:50:45.263Z,99.99
2023-03-30T03:51:45.277Z,99.99
2023-03-30T03:52:45.279Z,99.99
2023-03-30T03:53:45.245Z,99.99
2023-03-30T03:54:45.232Z,99.99
2023-03-30T03:55:45.222Z,99.99
2023-03-30T03:56:45.327Z,99.99
2023-03-30T03:57:45.196Z,99.99
2023-03-30T03:58:45.252Z,99.99
2023-03-30T03:59:45.192Z,99.99
2023-03-30T04:00:45.173Z,99.99
2023-03-30T04:01:45.148Z,99.99
2023-03-30T04:02:45.223Z,99.99
2023-03-30T04:03:45.155Z,99.99
2023-03-30T04:04:45.182Z,99.99
2023-03-30T04:05:45.106Z,99.99
2023-03-30T04:06:45.083Z,99.99
2023-03-30T04:07:45.073Z,99.99
2023-03-30T04:08:45.076Z,99.99
2023-03-30T04:09:45.084Z,99.99
2023-03-30T04:10:45.085Z,99.99
2023-03-30T04:11:45.030Z,99.99
2023-03-30T04:12:45.040Z,99.99
2023-03-30T04:13:45.008Z,99.99
2023-03-30T04:14:45.014Z,99.99
2023-03-30T04:15:45.022Z,99.99
2023-03-30T04:16:45.134Z,99.99
2023-03-30T04:17:47.225Z,99.99
2023-03-30T04:18:44.948Z,99.99
2023-03-30T04:19:44.941Z,99.99
2023-03-30T04:20:44.937Z,99.99
2023-03-30T04:21:44.971Z,99.99
2023-03-30T04:22:44.958Z,99.99
2023-03-30T04:23:44.895Z,99.99
2023-03-30T04:24:44.881Z,99.99
2023-03-30T04:25:44.898Z,99.99
2023-03-30T04:26:44.994Z,99.99
2023-03-30T04:27:44.864Z,99.99
2023-03-30T04:28:44.836Z,99.99
2023-03-30T04:29:44.853Z,99.99
2023-03-30T04:30:44.866Z,99.99
2023-03-30T04:31:44.855Z,99.99
2023-03-30T04:32:44.902Z,99.99
2023-03-30T04:33:46.626Z,99.99
2023-03-30T04:34:44.775Z,99.99
2023-03-30T04:35:44.875Z,99.99
2023-03-30T04:36:44.759Z,99.99
2023-03-30T04:37:44.741Z,99.99
2023-03-30T04:38:44.749Z,99.99
2023-03-30T04:39:44.717Z,99.99
2023-03-30T04:40:44.705Z,99.99
2023-03-30T04:41:44.746Z,99.99
2023-03-30T04:42:44.689Z,99.99
2023-03-30T04:43:44.712Z,99.99
2023-03-30T04:44:44.701Z,99.99
2023-03-30T04:45:44.716Z,99.99
2023-03-30T04:46:44.670Z,99.99
2023-03-30T04:47:44.717Z,99.99
2023-03-30T04:48:44.617Z,99.99
2023-03-30T04:49:44.681Z,99.99
2023-03-30T04:50:44.628Z,99.99
2023-03-30T04:51:44.626Z,99.99
2023-03-30T04:52:44.629Z,99.99
2023-03-30T04:53:44.575Z,99.99
2023-03-30T04:54:44.556Z,99.99
2023-03-30T04:55:44.564Z,99.99
2023-03-30T04:56:44.569Z,99.99
2023-03-30T04:57:44.590Z,99.99
2023-03-30T04:58:44.505Z,99.99
2023-03-30T04:59:44.527Z,99.99
2023-03-30T05:00:44.493Z,99.99
2023-03-30T05:01:44.561Z,99.99
2023-03-30T05:02:44.562Z,99.99
2023-03-30T05:03:44.501Z,99.99
2023-03-30T05:04:44.445Z,99.99
2023-03-30T05:05:44.460Z,99.99
2023-03-30T05:06:44.435Z,99.99
2023-03-30T05:07:44.439Z,99.99
2023-03-30T05:08:44.408Z,99.99
2023-03-30T05:09:44.403Z,99.99
2023-03-30T05:10:44.380Z,99.99
2023-03-30T05:11:44.364Z,99.99
2023-03-30T05:12:44.371Z,99.99
2023-03-30T05:13:44.378Z,99.99
2023-03-30T05:14:44.329Z,99.99
2023-03-30T05:15:44.348Z,99.99
2023-03-30T05:16:44.317Z,99.99
2023-03-30T05:17:44.366Z,99.99
2023-03-30T05:18:44.305Z,99.99
2023-03-30T05:19:44.317Z,99.99
2023-03-30T05:20:44.287Z,99.99
2023-03-30T05:21:44.282Z,99.99
2023-03-30T05:22:44.287Z,99.99
2023-03-30T05:23:44.245Z,99.99
2023-03-30T05:24:44.218Z,99.99
2023-03-30T05:25:44.221Z,99.99
2023-03-30T05:26:44.192Z,99.99
2023-03-30T05:27:44.235Z,99.99
2023-03-30T05:28:44.206Z,99.99
2023-03-30T05:29:44.178Z,99.99
2023-03-30T05:30:44.146Z,99.99
2023-03-30T05:31:44.152Z,99.99
2023-03-30T05:32:44.201Z,99.99
2023-03-30T05:33:44.163Z,99.99
2023-03-30T05:34:44.137Z,99.99
2023-03-30T05:35:44.159Z,99.99
2023-03-30T05:36:44.086Z,99.99
2023-03-30T05:37:44.099Z,99.99
2023-03-30T05:38:44.079Z,99.99
2023-03-30T05:39:44.100Z,99.99
2023-03-30T05:40:44.043Z,99.99
2023-03-30T05:41:44.022Z,99.99
2023-03-30T05:42:44.036Z,99.99
2023-03-30T05:43:44.005Z,99.99
2023-03-30T05:44:44.009Z,99.99
2023-03-30T05:45:44.036Z,99.99
2023-03-30T05:46:44.001Z,99.99
2023-03-30T05:47:43.998Z,99.99
2023-03-30T05:48:43.997Z,99.99
2023-03-30T05:49:43.935Z,99.99
2023-03-30T05:50:43.945Z,99.99
2023-03-30T05:51:43.959Z,99.99
2023-03-30T05:52:43.921Z,99.99
2023-03-30T05:53:43.891Z,99.99
2023-03-30T05:54:43.906Z,99.99
2023-03-30T05:55:43.876Z,99.99
2023-03-30T05:56:43.879Z,99.99
2023-03-30T05:57:43.901Z,99.99
2023-03-30T05:58:43.833Z,99.99
2023-03-30T05:59:43.840Z,99.99
2023-03-30T06:00:43.810Z,99.99
2023-03-30T06:01:43.825Z,99.99
2023-03-30T06:02:43.908Z,99.99
2023-03-30T06:03:44.051Z,99.99
2023-03-30T06:04:43.841Z,99.99
2023-03-30T06:05:43.834Z,99.99
2023-03-30T06:06:43.789Z,99.99
2023-03-30T06:07:43.765Z,99.99
2023-03-30T06:08:43.768Z,99.99
2023-03-30T06:09:43.755Z,99.99
2023-03-30T06:10:43.696Z,99.99
2023-03-30T06:11:43.691Z,99.99
2023-03-30T06:12:43.695Z,99.99
2023-03-30T06:13:43.689Z,99.99
2023-03-30T06:14:43.671Z,99.99
2023-03-30T06:15:43.687Z,99.99
2023-03-30T06:16:43.697Z,99.99
2023-03-30T06:17:43.691Z,99.99
2023-03-30T06:18:43.631Z,99.99
2023-03-30T06:19:43.627Z,99.99
2023-03-30T06:20:43.603Z,99.99
2023-03-30T06:21:43.613Z,99.99
2023-03-30T06:22:43.584Z,99.99
2023-03-30T06:23:43.598Z,99.99
2023-03-30T06:24:43.544Z,99.99
2023-03-30T06:25:43.543Z,99.99
2023-03-30T06:26:43.515Z,99.99
2023-03-30T06:27:44.801Z,99.99
2023-03-30T06:28:43.513Z,99.99
2023-03-30T06:29:43.496Z,99.99
2023-03-30T06:30:43.507Z,99.99
2023-03-30T06:31:43.521Z,99.99
2023-03-30T06:32:43.473Z,99.99
2023-03-30T06:33:43.493Z,99.99
2023-03-30T06:34:43.460Z,99.99
2023-03-30T06:35:43.505Z,99.99
2023-03-30T06:36:45.293Z,99.99
2023-03-30T06:37:43.419Z,99.99
2023-03-30T06:38:43.413Z,99.99
2023-03-30T06:39:43.394Z,99.99
2023-03-30T06:40:43.370Z,99.99
2023-03-30T06:41:43.465Z,99.99
2023-03-30T06:42:43.382Z,99.99
2023-03-30T06:43:43.390Z,99.99
2023-03-30T06:44:43.326Z,99.99
2023-03-30T06:45:43.384Z,99.99
2023-03-30T06:46:43.346Z,99.99
2023-03-30T06:47:43.310Z,99.99
2023-03-30T06:48:43.287Z,99.99
2023-03-30T06:49:43.281Z,99.99
2023-03-30T06:50:43.408Z,99.99
2023-03-30T06:51:43.239Z,99.99
2023-03-30T06:52:43.272Z,99.99
2023-03-30T06:53:43.238Z,99.99
2023-03-30T06:54:43.224Z,99.99
2023-03-30T06:55:43.205Z,99.99
2023-03-30T06:56:43.239Z,99.99
2023-03-30T06:57:43.267Z,99.99
2023-03-30T06:58:43.256Z,99.99
2023-03-30T06:59:43.163Z,99.99
2023-03-30T07:00:43.134Z,99.99
2023-03-30T07:01:43.182Z,99.99
2023-03-30T07:02:43.152Z,99.99
2023-03-30T07:03:43.133Z,99.99
2023-03-30T07:04:43.212Z,99.99
2023-03-30T07:05:43.092Z,99.99
2023-03-30T07:06:43.124Z,99.99
2023-03-30T07:07:43.069Z,99.99
2023-03-30T07:08:43.051Z,99.99
2023-03-30T07:09:43.065Z,99.99
2023-03-30T07:10:43.066Z,99.99
2023-03-30T07:11:43.041Z,99.99
2023-03-30T07:12:43.080Z,99.99
2023-03-30T07:13:42.997Z,99.99
2023-03-30T07:14:42.993Z,99.99
2023-03-30T07:15:43.009Z,99.99
2023-03-30T07:16:43.040Z,99.99
2023-03-30T07:17:42.979Z,99.99
2023-03-30T07:18:42.984Z,99.99
2023-03-30T07:19:42.928Z,99.99
2023-03-30T07:20:42.927Z,99.99
2023-03-30T07:21:42.947Z,99.99
2023-03-30T07:22:42.905Z,99.99
2023-03-30T07:23:42.922Z,99.99
2023-03-30T07:24:42.885Z,99.99
2023-03-30T07:25:42.890Z,99.99
2023-03-30T07:26:42.890Z,99.99
2023-03-30T07:27:42.857Z,99.99
2023-03-30T07:28:42.851Z,99.99
2023-03-30T07:29:42.821Z,99.99
2023-03-30T07:30:42.968Z,99.99
2023-03-30T07:31:43.026Z,99.99
2023-03-30T07:32:42.842Z,99.99
2023-03-30T07:33:42.797Z,99.99
2023-03-30T07:34:42.781Z,99.99
2023-03-30T07:35:42.788Z,99.99
2023-03-30T07:36:42.774Z,99.99
2023-03-30T07:37:42.781Z,99.99
2023-03-30T07:38:42.779Z,99.99
2023-03-30T07:39:42.718Z,99.99
2023-03-30T07:40:42.737Z,99.99
2023-03-30T07:41:42.691Z,99.99
2023-03-30T07:42:42.727Z,99.99
2023-03-30T07:43:42.760Z,99.99
2023-03-30T07:44:42.660Z,99.99
2023-03-30T07:45:42.691Z,99.99
2023-03-30T07:46:42.671Z,99.99
2023-03-30T07:47:42.624Z,99.99
2023-03-30T07:48:42.616Z,99.99
2023-03-30T07:49:42.598Z,99.99
2023-03-30T07:50:42.625Z,99.99
2023-03-30T07:51:42.614Z,99.99
2023-03-30T07:52:42.568Z,99.99
2023-03-30T07:53:42.576Z,99.99
2023-03-30T07:54:42.548Z,99.99
2023-03-30T07:55:42.534Z,99.99
2023-03-30T07:56:43.409Z,99.99
2023-03-30T07:57:42.561Z,99.99
2023-03-30T07:58:42.517Z,99.99
2023-03-30T07:59:42.503Z,99.99
2023-03-30T08:00:42.477Z,99.99
2023-03-30T08:01:42.498Z,99.99
2023-03-30T08:02:42.582Z,99.99
2023-03-30T08:03:42.534Z,99.99
2023-03-30T08:04:42.513Z,99.99
2023-03-30T08:05:42.419Z,99.99
2023-03-30T08:06:42.419Z,99.99
2023-03-30T08:07:42.410Z,99.99
2023-03-30T08:08:42.417Z,99.99
2023-03-30T08:09:42.457Z,99.99
2023-03-30T08:10:42.365Z,99.99
2023-03-30T08:11:42.361Z,99.99
2023-03-30T08:12:42.357Z,99.99
2023-03-30T08:13:42.352Z,99.99
2023-03-30T08:14:42.349Z,99.99
2023-03-30T08:15:42.381Z,99.99
2023-03-30T08:16:42.325Z,99.99
2023-03-30T08:17:42.329Z,99.99
2023-03-30T08:18:42.284Z,99.99
2023-03-30T08:19:42.302Z,99.99
2023-03-30T08:20:42.258Z,99.99
2023-03-30T08:21:42.261Z,99.99
2023-03-30T08:22:42.238Z,99.99
2023-03-30T08:23:42.253Z,99.99
2023-03-30T08:24:42.231Z,99.99
2023-03-30T08:25:42.638Z,99.99
2023-03-30T08:26:42.226Z,99.99
2023-03-30T08:27:42.174Z,99.99
2023-03-30T08:28:42.212Z,99.99
2023-03-30T08:29:42.162Z,99.99
2023-03-30T08:30:42.181Z,99.99
2023-03-30T08:31:42.257Z,99.99
2023-03-30T08:32:42.159Z,99.99
2023-03-30T08:33:42.107Z,99.99
2023-03-30T08:34:42.119Z,99.99
2023-03-30T08:35:42.133Z,99.70
2023-03-30T08:36:42.131Z,99.50
2023-03-30T08:37:42.070Z,99.29
2023-03-30T08:38:42.066Z,99.40
2023-03-30T08:39:42.076Z,98.89
2023-03-30T08:40:42.031Z,98.38
2023-03-30T08:41:42.041Z,98.38
2023-03-30T08:42:42.058Z,98.99
2023-03-30T08:43:42.047Z,99.70
2023-03-30T08:44:41.989Z,99.09
2023-03-30T08:45:42.857Z,98.68
2023-03-30T08:46:41.983Z,98.79
2023-03-30T08:47:42.032Z,98.38
2023-03-30T08:48:42.008Z,98.89
2023-03-30T08:49:41.961Z,98.68
2023-03-30T08:50:49.976Z,98.27
2023-03-30T08:51:41.924Z,98.79
2023-03-30T08:52:41.934Z,98.38
2023-03-30T08:53:41.951Z,98.07
2023-03-30T08:54:41.883Z,98.27
2023-03-30T08:55:41.874Z,98.58
2023-03-30T08:56:42.011Z,98.43
2023-03-30T08:57:41.846Z,98.38
2023-03-30T08:58:41.849Z,98.48
2023-03-30T08:59:41.819Z,98.58
2023-03-30T09:00:41.808Z,98.48
2023-03-30T09:01:41.841Z,98.89
2023-03-30T09:02:42.011Z,99.40
2023-03-30T09:03:41.780Z,99.50
2023-03-30T09:04:41.803Z,99.80
2023-03-30T09:05:41.795Z,99.80
2023-03-30T09:06:41.756Z,98.79
2023-03-30T09:07:41.729Z,99.55
2023-03-30T09:08:41.761Z,98.94
2023-03-30T09:09:41.721Z,99.55
2023-03-30T09:10:41.747Z,99.35
2023-03-30T09:11:41.686Z,98.84
2023-03-30T09:12:41.808Z,98.74
2023-03-30T09:13:41.670Z,98.69
2023-03-30T09:14:41.684Z,98.28
2023-03-30T09:15:41.658Z,98.79
2023-03-30T09:16:41.727Z,98.49
2023-03-30T09:17:41.780Z,97.78
2023-03-30T09:18:41.630Z,97.98
2023-03-30T09:19:41.608Z,97.37
2023-03-30T09:20:42.671Z,97.57
2023-03-30T09:21:41.597Z,97.32
2023-03-30T09:22:41.609Z,97.22
2023-03-30T09:23:41.567Z,96.81
2023-03-30T09:24:41.552Z,96.61
2023-03-30T09:25:41.564Z,95.75
2023-03-30T09:26:41.540Z,95.75
2023-03-30T09:27:41.534Z,96.56
2023-03-30T09:28:41.512Z,96.01
2023-03-30T09:29:41.682Z,95.20
2023-03-30T09:30:41.492Z,95.00
2023-03-30T09:31:41.602Z,94.95
2023-03-30T09:32:41.571Z,94.04
2023-03-30T09:33:41.496Z,93.73
2023-03-30T09:34:41.466Z,95.15
2023-03-30T09:35:41.447Z,94.95
2023-03-30T09:36:41.438Z,94.54
2023-03-30T09:37:41.403Z,94.85
2023-03-30T09:38:41.408Z,94.54
2023-03-30T09:39:41.493Z,94.60
2023-03-30T09:40:41.372Z,94.80
2023-03-30T09:41:41.353Z,93.99
2023-03-30T09:42:41.993Z,94.70
2023-03-30T09:43:41.342Z,94.50
2023-03-30T09:44:41.359Z,94.90
2023-03-30T09:45:41.321Z,94.86
2023-03-30T09:46:41.369Z,95.17
2023-03-30T09:47:41.319Z,95.47
2023-03-30T09:48:41.317Z,94.56
2023-03-30T09:49:41.281Z,94.31
2023-03-30T09:50:41.368Z,94.35
2023-03-30T09:51:41.243Z,93.19
2023-03-30T09:52:41.250Z,93.29
2023-03-30T09:53:41.241Z,92.99
2023-03-30T09:54:41.256Z,91.77
2023-03-30T09:55:41.212Z,92.38
2023-03-30T09:56:42.164Z,93.40
2023-03-30T09:57:41.185Z,93.45
2023-03-30T09:58:41.165Z,93.86
2023-03-30T09:59:41.151Z,92.54
2023-03-30T10:00:41.194Z,91.73
2023-03-30T10:01:41.180Z,91.63
2023-03-30T10:02:41.216Z,91.32
2023-03-30T10:03:41.216Z,90.61
2023-03-30T10:04:41.137Z,90.61
2023-03-30T10:05:41.119Z,90.41
2023-03-30T10:06:41.132Z,90.71
2023-03-30T10:07:41.080Z,90.51
2023-03-30T10:08:41.053Z,91.32
2023-03-30T10:09:41.069Z,90.97
2023-03-30T10:10:41.070Z,91.17
2023-03-30T10:11:41.034Z,91.58
2023-03-30T10:12:41.008Z,91.08
2023-03-30T10:13:41.028Z,89.96
2023-03-30T10:14:40.996Z,89.55
2023-03-30T10:15:41.045Z,90.16
2023-03-30T10:16:41.063Z,90.57
2023-03-30T10:17:41.004Z,91.38
2023-03-30T10:18:40.993Z,91.58
2023-03-30T10:19:44.643Z,91.38
2023-03-30T10:20:41.922Z,90.77
2023-03-30T10:21:40.938Z,89.25
2023-03-30T10:22:40.939Z,88.54
2023-03-30T10:23:40.899Z,89.01
2023-03-30T10:24:42.033Z,89.81
2023-03-30T10:25:40.876Z,89.31
2023-03-30T10:26:40.849Z,88.60
2023-03-30T10:27:40.866Z,87.99
2023-03-30T10:28:40.842Z,86.16
2023-03-30T10:29:40.879Z,86.21
2023-03-30T10:30:40.801Z,86.61
2023-03-30T10:31:40.847Z,86.31
2023-03-30T10:32:40.824Z,86.31
2023-03-30T10:33:40.773Z,86.41
2023-03-30T10:34:40.785Z,87.73
2023-03-30T10:35:40.867Z,87.16
2023-03-30T10:36:40.804Z,87.06
2023-03-30T10:37:40.738Z,87.97
2023-03-30T10:38:40.743Z,87.37
2023-03-30T10:39:40.728Z,88.93
2023-03-30T10:40:40.704Z,88.12
2023-03-30T10:41:40.692Z,87.81
2023-03-30T10:42:40.680Z,89.43
2023-03-30T10:43:40.660Z,88.12
2023-03-30T10:44:40.645Z,87.51
2023-03-30T10:45:40.670Z,88.18
2023-03-30T10:46:40.646Z,87.87
2023-03-30T10:47:40.685Z,87.16
2023-03-30T10:48:40.625Z,87.93
2023-03-30T10:49:40.598Z,86.71
2023-03-30T10:50:40.590Z,86.15
2023-03-30T10:51:40.588Z,87.16
2023-03-30T10:52:45.948Z,87.12
2023-03-30T10:53:41.584Z,87.12
2023-03-30T10:54:40.558Z,87.83
2023-03-30T10:55:40.553Z,87.22
2023-03-30T10:56:40.561Z,86.31
2023-03-30T10:57:40.495Z,86.10
2023-03-30T10:58:40.485Z,86.45
2023-03-30T10:59:40.620Z,87.16
2023-03-30T11:00:40.500Z,87.57
2023-03-30T11:01:40.483Z,87.67
2023-03-30T11:02:40.550Z,87.97
2023-03-30T11:03:40.530Z,88.68
2023-03-30T11:04:40.444Z,88.48
2023-03-30T11:05:40.411Z,88.73
2023-03-30T11:06:40.421Z,89.39
2023-03-30T11:07:40.401Z,89.23
2023-03-30T11:08:40.378Z,89.54
2023-03-30T11:09:40.358Z,89.54
2023-03-30T11:10:42.114Z,89.94
2023-03-30T11:11:40.359Z,90.19
2023-03-30T11:12:40.353Z,89.17
2023-03-30T11:13:40.334Z,89.37
2023-03-30T11:14:40.306Z,89.98
2023-03-30T11:15:40.307Z,90.59
2023-03-30T11:16:40.317Z,90.13
2023-03-30T11:17:40.311Z,90.84
2023-03-30T11:18:40.312Z,90.84
2023-03-30T11:19:40.265Z,91.49
2023-03-30T11:20:40.234Z,91.60
2023-03-30T11:21:40.236Z,91.74
2023-03-30T11:22:40.211Z,92.65
2023-03-30T11:23:40.203Z,92.55
2023-03-30T11:24:40.220Z,93.51
2023-03-30T11:25:40.182Z,93.21
2023-03-30T11:26:40.204Z,93.31
2023-03-30T11:27:40.155Z,92.90
2023-03-30T11:28:40.183Z,93.41
2023-03-30T11:29:40.168Z,93.51
2023-03-30T11:30:40.163Z,93.10
2023-03-30T11:31:40.185Z,93.55
2023-03-30T11:32:40.111Z,93.51
2023-03-30T11:33:40.132Z,93.71
2023-03-30T11:34:40.084Z,93.92
2023-03-30T11:35:40.112Z,94.02
2023-03-30T11:36:40.052Z,94.12
2023-03-30T11:37:40.056Z,93.82
2023-03-30T11:38:40.036Z,94.43
2023-03-30T11:39:40.048Z,93.41
2023-03-30T11:40:40.016Z,94.53
2023-03-30T11:41:40.005Z,94.84
2023-03-30T11:42:40.006Z,95.24
2023-03-30T11:43:39.985Z,94.59
2023-03-30T11:44:39.990Z,95.30
2023-03-30T11:45:39.963Z,95.65
2023-03-30T11:46:39.983Z,94.63
2023-03-30T11:47:40.593Z,95.65
2023-03-30T11:48:39.916Z,96.77
2023-03-30T11:49:39.937Z,97.63
2023-03-30T11:50:39.898Z,95.79
2023-03-30T11:51:39.934Z,96.81
2023-03-30T11:52:39.886Z,97.06
2023-03-30T11:53:39.861Z,98.28
2023-03-30T11:54:44.926Z,96.55
2023-03-30T11:55:40.858Z,95.98
2023-03-30T11:56:39.865Z,97.62
2023-03-30T11:57:39.836Z,98.48
2023-03-30T11:58:39.874Z,99.80
2023-03-30T11:59:39.799Z,99.99
2023-03-30T12:00:39.787Z,99.99
2023-03-30T12:01:39.842Z,99.99
2023-03-30T12:02:39.838Z,99.99
2023-03-30T12:03:39.966Z,99.99
2023-03-30T12:04:41.148Z,99.99
2023-03-30T12:05:39.729Z,99.99
2023-03-30T12:06:39.717Z,99.99
2023-03-30T12:07:39.726Z,99.99
2023-03-30T12:08:39.719Z,99.99
2023-03-30T12:09:39.698Z,99.99
2023-03-30T12:10:39.675Z,99.99
2023-03-30T12:11:39.688Z,99.99
2023-03-30T12:12:39.652Z,99.99
2023-03-30T12:13:50.781Z,99.99
2023-03-30T12:14:40.801Z,99.99
2023-03-30T12:15:39.632Z,99.99
2023-03-30T12:16:39.677Z,99.99
2023-03-30T12:17:39.648Z,99.99
2023-03-30T12:18:39.586Z,99.99
2023-03-30T12:19:49.127Z,99.99
2023-03-30T12:20:40.611Z,99.99
2023-03-30T12:21:39.554Z,99.99
2023-03-30T12:22:39.546Z,99.99
2023-03-30T12:23:39.530Z,99.99
2023-03-30T12:24:39.529Z,99.99
2023-03-30T12:25:39.542Z,99.99
2023-03-30T12:26:39.557Z,99.99
2023-03-30T12:27:39.487Z,99.99
2023-03-30T12:28:54.939Z,99.99
2023-03-30T12:30:01.082Z,99.99
2023-03-30T12:30:40.475Z,99.99
2023-03-30T12:31:39.529Z,99.99
2023-03-30T12:32:39.572Z,99.99
2023-03-30T12:33:39.436Z,99.99
2023-03-30T12:34:39.407Z,99.99
2023-03-30T12:35:39.448Z,99.99
2023-03-30T12:36:39.421Z,99.99
2023-03-30T12:37:39.395Z,99.99
2023-03-30T12:38:39.412Z,99.99
2023-03-30T12:39:39.352Z,99.99
2023-03-30T12:40:39.341Z,99.99
2023-03-30T12:41:39.345Z,99.99
2023-03-30T12:42:39.410Z,99.99
2023-03-30T12:43:39.323Z,99.99
2023-03-30T12:44:39.354Z,99.99
2023-03-30T12:45:39.331Z,99.99
2023-03-30T12:46:39.343Z,99.99
2023-03-30T12:47:39.313Z,99.99
2023-03-30T12:48:39.262Z,99.99
2023-03-30T12:49:39.270Z,99.99
2023-03-30T12:50:39.278Z,99.99
2023-03-30T12:51:39.227Z,99.99
2023-03-30T12:52:39.211Z,99.99